A Run — WDH6831 — position and weather

sailwx.info

Track history (hours):
 
Tides and Currents Weather Stations Pressure Air Temp Water Temp Dewpoint Dewpoint Depression Visibility Wind Speed Wind Dir Waves Ship Positions

A Run

Owner: Calore, Neil M, Green Cove Springs, FL. More information available from US FCC via Universal Licensing System and Coast Guard Vessel Documentation Center.

Last reported at 2017-Nov-25 21:53 UTC. Time now 2017-Dec-18 01:26 UTC.
Position N 26°07' W 080°07'.
Warning: this ship's position is 22 days out of date.

Length 10 m.

Type: Sailing vessel. MMSI: 367642050.

Date/timePositionNaut miles runAvg speedWind from/ knotsBaromVisibWave heightAir tempDewpointWater temp
2017-Nov-25 21:53N 26°07' W 080°07'0 0.0
2017-Nov-25 21:23N 26°07' W 080°07'0 0.0
2017-Nov-25 20:57N 26°07' W 080°07'0 0.0
2017-Nov-25 20:30N 26°07' W 080°07'1 2.0
2017-Nov-25 20:00N 26°06' W 080°07'2 3.3
2017-Nov-25 19:30N 26°07' W 080°05'3 6.4
2017-Nov-25 19:00N 26°10' W 080°05'3 6.3
2017-Nov-25 18:29N 26°13' W 080°04'3 5.8
2017-Nov-25 18:00N 26°16' W 080°04'3 5.6
2017-Nov-25 17:30N 26°18' W 080°03'3 5.2
2017-Nov-25 17:00N 26°21' W 080°03'3 5.2
2017-Nov-25 16:21N 26°24' W 080°02'  
2017-Nov-18 17:17N 26°45' W 080°03'1 1.9
2017-Nov-18 17:00N 26°45' W 080°03'3 5.1
2017-Nov-18 16:30N 26°42' W 080°03'8 0.4
2017-Nov-17 21:40N 26°34' W 080°03'1 5.5
2017-Nov-17 21:30N 26°35' W 080°03'1 2.4
2017-Nov-17 21:00N 26°36' W 080°03'3 5.9
2017-Nov-17 20:30N 26°39' W 080°03'4 2.7
2017-Nov-17 18:59N 26°43' W 080°03'2 0.1
2017-Nov-17 02:36N 26°46' W 080°03'0 0.0
2017-Nov-17 02:30N 26°46' W 080°03'7 1.2
2017-Nov-16 20:42N 26°52' W 080°04'1 6.6
2017-Nov-16 20:29N 26°53' W 080°04'3 6.0
2017-Nov-16 20:00N 26°56' W 080°05'1 1.1
2017-Nov-16 19:30N 26°57' W 080°05'3 6.6
2017-Nov-16 19:00N 27°00' W 080°06'  
Track history (hours):
 
Tides and Currents Weather Stations Pressure Air Temp Water Temp Dewpoint Dewpoint Depression Visibility Wind Speed Wind Dir Waves Ship Positions

A Run

Owner: Calore, Neil M, Green Cove Springs, FL. More information available from US FCC via Universal Licensing System and Coast Guard Vessel Documentation Center.

Last reported at 2017-Nov-25 21:53 UTC. Time now 2017-Dec-18 01:26 UTC.
Position N 26°07' W 080°07'.
Warning: this ship's position is 22 days out of date.

Length 10 m.

Type: Sailing vessel. MMSI: 367642050.

Date/timePositionNaut miles runAvg speedWind from/ knotsBaromVisibWave heightAir tempDewpointWater temp
2017-Nov-25 21:53N 26°07' W 080°07'0 0.0
2017-Nov-25 21:23N 26°07' W 080°07'0 0.0
2017-Nov-25 20:57N 26°07' W 080°07'0 0.0
2017-Nov-25 20:30N 26°07' W 080°07'1 2.0
2017-Nov-25 20:00N 26°06' W 080°07'2 3.3
2017-Nov-25 19:30N 26°07' W 080°05'3 6.4
2017-Nov-25 19:00N 26°10' W 080°05'3 6.3
2017-Nov-25 18:29N 26°13' W 080°04'3 5.8
2017-Nov-25 18:00N 26°16' W 080°04'3 5.6
2017-Nov-25 17:30N 26°18' W 080°03'3 5.2
2017-Nov-25 17:00N 26°21' W 080°03'3 5.2
2017-Nov-25 16:21N 26°24' W 080°02'  
2017-Nov-18 17:17N 26°45' W 080°03'1 1.9
2017-Nov-18 17:00N 26°45' W 080°03'3 5.1
2017-Nov-18 16:30N 26°42' W 080°03'8 0.4
2017-Nov-17 21:40N 26°34' W 080°03'1 5.5
2017-Nov-17 21:30N 26°35' W 080°03'1 2.4
2017-Nov-17 21:00N 26°36' W 080°03'3 5.9
2017-Nov-17 20:30N 26°39' W 080°03'4 2.7
2017-Nov-17 18:59N 26°43' W 080°03'2 0.1
2017-Nov-17 02:36N 26°46' W 080°03'0 0.0
2017-Nov-17 02:30N 26°46' W 080°03'7 1.2
2017-Nov-16 20:42N 26°52' W 080°04'1 6.6
2017-Nov-16 20:29N 26°53' W 080°04'3 6.0
2017-Nov-16 20:00N 26°56' W 080°05'1 1.1
2017-Nov-16 19:30N 26°57' W 080°05'3 6.6
2017-Nov-16 19:00N 27°00' W 080°06'  

Dump ship's entire track history